createdAt,value
2022-09-09T00:00:00.184Z,1.1
2022-09-09T00:05:00.162Z,1.1
2022-09-09T00:10:00.174Z,1.1
2022-09-09T00:15:00.169Z,1.1
2022-09-09T00:20:00.169Z,1.1
2022-09-09T00:25:00.162Z,1.1
2022-09-09T00:30:00.181Z,1.1
2022-09-09T00:35:00.164Z,1.1
2022-09-09T00:40:00.257Z,1.1
2022-09-09T00:45:00.173Z,1.1
2022-09-09T00:50:01.371Z,1.1
2022-09-09T00:55:00.165Z,1.1
2022-09-09T01:00:00.203Z,1.1
2022-09-09T01:05:00.156Z,1.1
2022-09-09T01:10:00.167Z,1.1
2022-09-09T01:15:00.155Z,1.1
2022-09-09T01:20:00.162Z,1.1
2022-09-09T01:25:00.160Z,1.1
2022-09-09T01:30:00.181Z,1.1
2022-09-09T01:35:00.164Z,1.1
2022-09-09T01:40:00.356Z,1.1
2022-09-09T01:45:00.178Z,1.1
2022-09-09T01:50:00.183Z,1.1
2022-09-09T01:55:00.168Z,1.1
2022-09-09T02:00:00.177Z,1.1
2022-09-09T02:05:00.483Z,1.1
2022-09-09T02:10:00.242Z,1.1
2022-09-09T02:15:00.138Z,1.1
2022-09-09T02:20:00.173Z,1.1
2022-09-09T02:25:00.174Z,1.1
2022-09-09T02:30:00.174Z,1.1
2022-09-09T02:35:00.158Z,1.1
2022-09-09T02:40:00.282Z,1.1
2022-09-09T02:45:00.185Z,1.1
2022-09-09T02:50:00.168Z,1.1
2022-09-09T02:55:00.184Z,1.1
2022-09-09T03:00:00.191Z,1.1
2022-09-09T03:05:00.155Z,1.1
2022-09-09T03:10:00.179Z,1.1
2022-09-09T03:15:00.266Z,1.1
2022-09-09T03:20:00.154Z,1.1
2022-09-09T03:25:00.164Z,1.1
2022-09-09T03:30:00.167Z,1.1
2022-09-09T03:35:00.214Z,1.1
2022-09-09T03:40:00.277Z,1.1
2022-09-09T03:45:00.153Z,1.1
2022-09-09T03:50:00.191Z,1.1
2022-09-09T03:55:00.338Z,1.1
2022-09-09T04:00:00.194Z,1.1
2022-09-09T04:05:00.240Z,1.1
2022-09-09T04:10:00.171Z,1.1
2022-09-09T04:15:00.172Z,1.1
2022-09-09T04:20:00.172Z,1.1
2022-09-09T04:25:00.155Z,1.1
2022-09-09T04:30:00.174Z,1.1
2022-09-09T04:35:00.167Z,2.2
2022-09-09T04:40:00.333Z,5
2022-09-09T04:45:00.164Z,10.7
2022-09-09T04:50:00.163Z,24.1
2022-09-09T04:55:00.176Z,51.1
2022-09-09T05:00:00.161Z,79.6
2022-09-09T05:05:00.159Z,102.3
2022-09-09T05:10:00.170Z,136.3
2022-09-09T05:15:00.164Z,173.2
2022-09-09T05:20:00.182Z,239.2
2022-09-09T05:25:00.166Z,334.3
2022-09-09T05:30:00.192Z,385.9
2022-09-09T05:35:00.286Z,490.1
2022-09-09T05:40:00.339Z,615.1
2022-09-09T05:45:00.214Z,772.1
2022-09-09T05:50:00.183Z,849.6
2022-09-09T05:55:00.181Z,622.5
2022-09-09T06:00:00.174Z,607.8
2022-09-09T06:05:00.831Z,923.7
2022-09-09T06:10:00.173Z,912.8
2022-09-09T06:15:00.160Z,1041.1
2022-09-09T06:20:00.183Z,912.8
2022-09-09T06:30:00.397Z,1985.8
2022-09-09T06:35:00.160Z,1338.3
2022-09-09T06:40:00.359Z,1403.9
2022-09-09T06:45:00.174Z,1620.5
2022-09-09T06:50:00.703Z,2433.5
2022-09-09T06:55:00.158Z,1338.3
2022-09-09T07:00:00.350Z,1338.3
2022-09-09T07:05:00.213Z,1079.1
2022-09-09T07:10:00.170Z,870.2
2022-09-09T07:15:00.178Z,1245.7
2022-09-09T07:20:00.172Z,2133.6
2022-09-09T07:25:00.170Z,1679.7
2022-09-09T07:30:00.254Z,1275.8
2022-09-09T07:35:00.158Z,1159.4
2022-09-09T07:40:00.340Z,2911.7
2022-09-09T07:45:00.168Z,2492.4
2022-09-09T07:50:00.176Z,2911.7
2022-09-09T07:55:01.474Z,2911.7
2022-09-09T08:00:00.174Z,4478.2
2022-09-09T08:05:00.166Z,5169.5
2022-09-09T08:10:00.519Z,2646
2022-09-09T08:15:00.224Z,2009.8
2022-09-09T08:20:00.171Z,1230.8
2022-09-09T08:25:00.159Z,2911.7
2022-09-09T08:30:00.182Z,3926.3
2022-09-09T08:35:01.529Z,2009.8
2022-09-09T08:40:00.342Z,2583.5
2022-09-09T08:45:00.154Z,5487.9
2022-09-09T08:50:00.174Z,3926.3
2022-09-09T08:55:00.174Z,3654.5
2022-09-09T09:00:00.179Z,2009.8
2022-09-09T09:05:00.319Z,3483.7
2022-09-09T09:10:00.205Z,2809
2022-09-09T09:15:00.166Z,4927.9
2022-09-09T09:20:00.182Z,3833.5
2022-09-09T09:25:00.157Z,3568
2022-09-09T09:30:28.528Z,3879.6
2022-09-09T09:35:00.183Z,2809
2022-09-09T09:40:03.453Z,2522.4
2022-09-09T09:45:00.197Z,2009.8
2022-09-09T09:50:00.187Z,1601.3
2022-09-09T09:55:02.893Z,901.9
2022-09-09T10:00:00.167Z,1159.4
2022-09-09T10:05:00.293Z,2877.1
2022-09-09T10:10:00.232Z,3568
2022-09-09T10:15:00.163Z,4586.8
2022-09-09T10:20:00.293Z,3973.5
2022-09-09T10:25:00.171Z,4372.4
2022-09-09T10:30:00.239Z,2083.2
2022-09-09T10:35:00.261Z,4118.8
2022-09-09T10:40:00.322Z,3128.2
2022-09-09T10:45:01.150Z,2133.6
2022-09-09T10:50:00.242Z,5047.1
2022-09-09T10:55:00.246Z,3321.1
2022-09-09T11:00:00.273Z,2552.8
2022-09-09T11:05:00.248Z,2842.8
2022-09-09T11:10:00.435Z,4320.5
2022-09-09T11:15:00.525Z,4425
2022-09-09T11:20:00.163Z,3973.5
2022-09-09T11:25:00.202Z,2583.5
2022-09-09T11:30:00.208Z,4372.4
2022-09-09T11:35:00.165Z,4532.1
2022-09-09T11:40:00.346Z,4697.8
2022-09-09T11:45:00.166Z,2108.2
2022-09-09T11:50:00.173Z,3165.8
2022-09-09T11:55:00.260Z,4697.8
2022-09-09T12:00:00.224Z,3483.7
2022-09-09T12:05:00.285Z,1826.4
2022-09-09T12:10:00.293Z,1275.8
2022-09-09T12:15:00.258Z,957.5
2022-09-09T12:20:00.182Z,2583.5
2022-09-09T12:25:00.179Z,2677.9
2022-09-09T12:30:00.201Z,1403.9
2022-09-09T12:35:00.187Z,1187.5
2022-09-09T12:40:00.324Z,1387.2
2022-09-09T12:45:00.171Z,3281.6
2022-09-09T12:50:00.187Z,3128.2
2022-09-09T12:55:00.164Z,2742.6
2022-09-09T13:00:00.181Z,3018
2022-09-09T13:05:00.545Z,4425
2022-09-09T13:10:00.194Z,6185
2022-09-09T13:15:00.178Z,5620.7
2022-09-09T13:20:00.186Z,4021.3
2022-09-09T13:25:00.173Z,3926.3
2022-09-09T13:30:00.235Z,6185
2022-09-09T13:35:00.188Z,3525.6
2022-09-09T13:40:00.514Z,3483.7
2022-09-09T13:45:00.179Z,1544.8
2022-09-09T13:50:00.419Z,2238.1
2022-09-09T13:55:00.186Z,2034
2022-09-09T14:00:06.098Z,1962.2
2022-09-09T14:05:00.164Z,2552.8
2022-09-09T14:10:00.238Z,2108.2
2022-09-09T14:15:00.205Z,2614.6
2022-09-09T14:20:00.296Z,1783.3
2022-09-09T14:25:00.614Z,2083.2
2022-09-09T14:30:00.178Z,3165.8
2022-09-09T14:35:00.186Z,2583.5
2022-09-09T14:40:00.350Z,3442.3
2022-09-09T14:45:00.413Z,3611.1
2022-09-09T14:50:00.174Z,4372.4
2022-09-09T14:55:00.161Z,2946.7
2022-09-09T15:00:00.184Z,3833.5
2022-09-09T15:05:00.158Z,4869.3
2022-09-09T15:10:00.188Z,2877.1
2022-09-09T15:15:00.172Z,1582.3
2022-09-09T15:20:00.166Z,1915.9
2022-09-09T15:25:00.177Z,3483.7
2022-09-09T15:30:00.200Z,3742.9
2022-09-09T15:35:00.280Z,2646
2022-09-09T15:40:00.299Z,1699.9
2022-09-09T15:45:00.679Z,1403.9
2022-09-09T15:50:00.186Z,1387.2
2022-09-09T15:55:00.238Z,1370.7
2022-09-09T16:00:00.180Z,1322.4
2022-09-09T16:05:00.157Z,1230.8
2022-09-09T16:10:00.181Z,1306.7
2022-09-09T16:15:00.173Z,901.9
2022-09-09T16:20:00.180Z,1260.7
2022-09-09T16:25:00.196Z,1066.3
2022-09-09T16:30:00.175Z,880.6
2022-09-09T16:35:00.192Z,819.6
2022-09-09T16:40:00.337Z,800.3
2022-09-09T16:45:00.161Z,912.8
2022-09-09T16:50:00.185Z,957.5
2022-09-09T16:55:00.171Z,849.6
2022-09-09T17:00:00.339Z,514.1
2022-09-09T17:05:00.170Z,385.9
2022-09-09T17:10:00.182Z,342.4
2022-09-09T17:15:00.171Z,282.7
2022-09-09T17:20:00.197Z,217.3
2022-09-09T17:25:00.196Z,155.5
2022-09-09T17:30:00.162Z,103.5
2022-09-09T17:35:00.193Z,72.3
2022-09-09T17:40:00.309Z,42.7
2022-09-09T17:45:00.165Z,27.8
2022-09-09T17:50:00.179Z,21.9
2022-09-09T17:55:00.208Z,12.3
2022-09-09T18:00:00.202Z,9
2022-09-09T18:05:00.172Z,5.3
2022-09-09T18:10:00.176Z,2.9
2022-09-09T18:15:03.977Z,1.2
2022-09-09T18:20:00.287Z,1.1
2022-09-09T18:25:00.267Z,1.1
2022-09-09T18:30:00.204Z,1.1
2022-09-09T18:35:00.209Z,1.1
2022-09-09T18:40:00.282Z,1.1
2022-09-09T18:45:00.178Z,1.1
2022-09-09T18:50:00.162Z,1.1
2022-09-09T18:55:00.164Z,1.1
2022-09-09T19:00:00.185Z,1.1
2022-09-09T19:05:00.174Z,1.1
2022-09-09T19:10:00.196Z,1.1
2022-09-09T19:15:00.159Z,1.1
2022-09-09T19:20:00.152Z,1.1
2022-09-09T19:25:00.157Z,1.1
2022-09-09T19:30:00.187Z,1.1
2022-09-09T19:35:00.168Z,1.1
2022-09-09T19:40:00.268Z,1.1
2022-09-09T19:45:00.185Z,1.1
2022-09-09T19:50:00.184Z,1.1
2022-09-09T19:55:00.164Z,1.1
2022-09-09T20:00:00.162Z,1.1
2022-09-09T20:05:00.176Z,1.1
2022-09-09T20:10:00.197Z,1.1
2022-09-09T20:15:00.163Z,1.1
2022-09-09T20:20:00.163Z,1.1
2022-09-09T20:25:00.155Z,1.1
2022-09-09T20:30:00.174Z,1.1
2022-09-09T20:35:00.155Z,1.1
2022-09-09T20:40:00.218Z,1.1
2022-09-09T20:45:00.179Z,1.1
2022-09-09T20:50:00.177Z,1.1
2022-09-09T20:55:00.161Z,1.1
2022-09-09T21:00:00.163Z,1.1
2022-09-09T21:05:00.167Z,1.1
2022-09-09T21:10:00.204Z,1.1
2022-09-09T21:15:00.163Z,1.1
2022-09-09T21:20:00.197Z,1.1
2022-09-09T21:25:00.178Z,1.1
2022-09-09T21:30:00.172Z,1.1
2022-09-09T21:35:00.387Z,1.1
2022-09-09T21:40:00.382Z,1.1
2022-09-09T21:45:00.174Z,1.1
2022-09-09T21:50:00.206Z,1.1
2022-09-09T21:55:00.169Z,1.1
2022-09-09T22:00:00.191Z,1.1
2022-09-09T22:05:00.179Z,1.1
2022-09-09T22:10:00.159Z,1.1
2022-09-09T22:15:00.160Z,1.1
2022-09-09T22:20:00.160Z,1.1
2022-09-09T22:25:00.164Z,1.1
2022-09-09T22:30:00.165Z,1.1
2022-09-09T22:35:00.170Z,1.1
2022-09-09T22:40:00.176Z,1.1
2022-09-09T22:45:00.182Z,1.1
2022-09-09T22:50:00.175Z,1.1
2022-09-09T22:55:00.179Z,1.1
2022-09-09T23:00:00.174Z,1.1
2022-09-09T23:05:00.155Z,1.1
2022-09-09T23:10:00.259Z,1.1
2022-09-09T23:15:00.484Z,1.1
2022-09-09T23:20:00.305Z,1.1
2022-09-09T23:25:00.191Z,1.1
2022-09-09T23:30:00.172Z,1.1
2022-09-09T23:35:00.190Z,1.1
2022-09-09T23:40:00.250Z,1.1
2022-09-09T23:45:00.169Z,1.1
2022-09-09T23:50:00.201Z,1.1
2022-09-09T23:55:00.178Z,1.1
